createdAt,value
2019-02-04T00:01:43.581Z,82.92
2019-02-04T00:04:15.367Z,82.51
2019-02-04T00:06:46.754Z,82.62
2019-02-04T00:09:17.822Z,82.39
2019-02-04T00:11:49.015Z,82.37
2019-02-04T00:14:20.173Z,82.23
2019-02-04T00:16:51.436Z,82.50
2019-02-04T00:19:23.575Z,82.73
2019-02-04T00:21:54.767Z,82.81
2019-02-04T00:24:25.843Z,82.71
2019-02-04T00:26:56.967Z,82.51
2019-02-04T00:29:28.045Z,82.78
2019-02-04T00:31:59.134Z,82.65
2019-02-04T00:34:30.381Z,82.30
2019-02-04T00:37:01.491Z,82.78
2019-02-04T00:39:32.559Z,82.98
2019-02-04T00:42:04.007Z,82.91
2019-02-04T00:44:35.115Z,83.14
2019-02-04T00:47:06.455Z,83.23
2019-02-04T00:49:37.597Z,83.39
2019-02-04T00:52:08.924Z,83.45
2019-02-04T00:54:40.116Z,83.39
2019-02-04T00:57:11.273Z,83.50
2019-02-04T00:59:42.469Z,83.38
2019-02-04T01:02:13.932Z,83.54
2019-02-04T01:04:44.933Z,83.29
2019-02-04T01:07:16.210Z,83.17
2019-02-04T01:09:47.506Z,83.49
2019-02-04T01:12:18.688Z,83.42
2019-02-04T01:14:49.760Z,83.30
2019-02-04T01:17:20.942Z,83.03
2019-02-04T01:19:53.667Z,82.83
2019-02-04T01:22:24.762Z,83.24
2019-02-04T01:24:55.919Z,82.87
2019-02-04T01:27:26.971Z,82.62
2019-02-04T01:29:58.164Z,82.67
2019-02-04T01:32:29.204Z,82.49
2019-02-04T01:35:00.285Z,82.51
2019-02-04T01:37:31.354Z,82.20
2019-02-04T01:40:02.819Z,82.33
2019-02-04T01:42:34.186Z,82.43
2019-02-04T01:45:07.305Z,82.58
2019-02-04T01:47:38.483Z,82.39
2019-02-04T01:50:11.630Z,82.19
2019-02-04T01:52:43.146Z,82.19
2019-02-04T01:55:14.414Z,82.19
2019-02-04T01:57:46.917Z,82.50
2019-02-04T02:00:20.894Z,83.28
2019-02-04T02:02:52.291Z,82.92
2019-02-04T02:05:23.422Z,82.33
2019-02-04T02:07:54.779Z,81.93
2019-02-04T02:10:27.929Z,81.71
2019-02-04T02:12:59.087Z,81.53
2019-02-04T02:15:30.272Z,81.69
2019-02-04T02:18:01.479Z,81.57
2019-02-04T02:20:33.802Z,81.95
2019-02-04T02:23:05.437Z,81.79
2019-02-04T02:25:36.592Z,82.07
2019-02-04T02:28:08.191Z,81.76
2019-02-04T02:30:39.387Z,81.71
2019-02-04T02:33:10.545Z,81.53
2019-02-04T02:35:41.543Z,81.05
2019-02-04T02:38:12.996Z,81.10
2019-02-04T02:40:44.506Z,81.39
2019-02-04T02:43:15.618Z,81.45
2019-02-04T02:45:46.715Z,81.27
2019-02-04T02:48:17.940Z,81.16
2019-02-04T02:50:49.016Z,81.01
2019-02-04T02:53:20.420Z,79.98
2019-02-04T02:55:51.534Z,79.83
2019-02-04T02:58:22.552Z,79.81
2019-02-04T03:00:53.739Z,80.06
2019-02-04T03:03:24.734Z,79.73
2019-02-04T03:05:55.744Z,79.63
2019-02-04T03:08:26.835Z,79.39
2019-02-04T03:10:58.093Z,79.89
2019-02-04T03:13:29.219Z,79.89
2019-02-04T03:16:00.244Z,80.08
2019-02-04T03:18:31.451Z,79.48
2019-02-04T03:21:02.615Z,79.25
2019-02-04T03:23:33.762Z,79.42
2019-02-04T03:26:05.995Z,79.29
2019-02-04T03:28:37.010Z,79.40
2019-02-04T03:31:08.556Z,79.82
2019-02-04T03:33:39.749Z,80.06
2019-02-04T03:36:10.902Z,80.09
2019-02-04T03:38:42.039Z,79.72
2019-02-04T03:41:13.034Z,80.44
2019-02-04T03:43:44.524Z,79.56
2019-02-04T03:46:15.746Z,79.14
2019-02-04T03:48:46.950Z,79.42
2019-02-04T03:51:18.022Z,79.27
2019-02-04T03:53:49.111Z,79.66
2019-02-04T03:56:20.576Z,79.13
2019-02-04T03:58:51.687Z,79.45
2019-02-04T04:01:22.835Z,79.16
2019-02-04T04:03:54.015Z,79.05
2019-02-04T04:06:25.155Z,79.60
2019-02-04T04:08:56.519Z,79.00
2019-02-04T04:11:27.527Z,78.87
2019-02-04T04:13:58.650Z,79.06
2019-02-04T04:16:29.735Z,79.22
2019-02-04T04:19:00.923Z,79.68
2019-02-04T04:21:32.337Z,80.20
2019-02-04T04:24:03.549Z,79.11
2019-02-04T04:26:34.639Z,78.82
2019-02-04T04:29:06.778Z,79.05
2019-02-04T04:31:37.866Z,78.98
2019-02-04T04:34:09.307Z,79.23
2019-02-04T04:36:40.392Z,79.31
2019-02-04T04:39:11.573Z,79.43
2019-02-04T04:41:42.652Z,79.92
2019-02-04T04:44:13.841Z,79.92
2019-02-04T04:46:45.428Z,79.70
2019-02-04T04:49:16.450Z,79.86
2019-02-04T04:51:47.533Z,79.45
2019-02-04T04:54:18.721Z,79.39
2019-02-04T04:56:49.913Z,79.37
2019-02-04T04:59:21.341Z,79.52
2019-02-04T05:01:52.783Z,79.71
2019-02-04T05:04:23.864Z,79.74
2019-02-04T05:06:56.044Z,79.54
2019-02-04T05:09:27.219Z,79.33
2019-02-04T05:11:58.678Z,79.56
2019-02-04T05:14:29.894Z,79.46
2019-02-04T05:17:00.967Z,79.27
2019-02-04T05:19:32.058Z,79.01
2019-02-04T05:22:03.123Z,79.22
2019-02-04T05:24:34.186Z,79.48
2019-02-04T05:27:05.436Z,79.31
2019-02-04T05:29:36.608Z,79.42
2019-02-04T05:32:07.755Z,79.81
2019-02-04T05:34:38.883Z,79.81
2019-02-04T05:37:10.068Z,79.68
2019-02-04T05:39:41.220Z,80.48
2019-02-04T05:42:12.414Z,80.02
2019-02-04T05:44:44.509Z,79.43
2019-02-04T05:47:15.667Z,79.45
2019-02-04T05:49:46.676Z,79.67
2019-02-04T05:52:17.911Z,79.80
2019-02-04T05:54:49.002Z,79.43
2019-02-04T05:57:20.070Z,79.65
2019-02-04T05:59:51.250Z,79.60
2019-02-04T06:02:22.415Z,79.39
2019-02-04T06:04:53.511Z,79.11
2019-02-04T06:07:24.678Z,79.40
2019-02-04T06:09:58.558Z,79.60
2019-02-04T06:12:29.816Z,79.79
2019-02-04T06:15:01.106Z,79.51
2019-02-04T06:17:32.210Z,79.36
2019-02-04T06:20:05.563Z,79.55
2019-02-04T06:22:36.767Z,79.58
2019-02-04T06:25:07.976Z,78.65
2019-02-04T06:27:39.043Z,78.96
2019-02-04T06:30:11.064Z,79.53
2019-02-04T06:32:42.102Z,79.16
2019-02-04T06:35:13.698Z,78.59
2019-02-04T06:37:46.831Z,78.75
2019-02-04T06:40:17.943Z,79.00
2019-02-04T06:42:49.343Z,79.00
2019-02-04T06:45:20.525Z,78.89
2019-02-04T06:47:51.988Z,79.10
2019-02-04T06:50:23.550Z,79.17
2019-02-04T06:52:55.726Z,79.21
2019-02-04T06:55:29.684Z,79.62
2019-02-04T06:58:00.939Z,79.79
2019-02-04T07:00:32.292Z,80.16
2019-02-04T07:03:03.693Z,79.77
2019-02-04T07:05:43.447Z,78.76
2019-02-04T07:08:07.929Z,78.55
2019-02-04T07:10:39.207Z,78.71
2019-02-04T07:13:10.379Z,78.31
2019-02-04T07:15:41.818Z,78.91
2019-02-04T07:18:13.864Z,78.75
2019-02-04T07:20:45.174Z,78.77
2019-02-04T07:23:16.340Z,78.42
2019-02-04T07:25:47.515Z,78.35
2019-02-04T07:28:19.107Z,78.70
2019-02-04T07:30:50.265Z,78.56
2019-02-04T07:33:21.337Z,78.93
2019-02-04T07:35:52.413Z,78.06
2019-02-04T07:38:23.641Z,77.61
2019-02-04T07:40:54.849Z,77.30
2019-02-04T07:43:25.952Z,77.15
2019-02-04T07:45:57.194Z,77.07
2019-02-04T07:48:28.266Z,76.95
2019-02-04T07:50:59.358Z,76.96
2019-02-04T07:53:30.417Z,77.20
2019-02-04T07:56:01.505Z,77.00
2019-02-04T07:58:32.634Z,76.87
2019-02-04T08:01:03.877Z,76.86
2019-02-04T08:03:35.065Z,76.64
2019-02-04T08:06:06.246Z,76.62
2019-02-04T08:08:37.321Z,76.57
2019-02-04T08:11:08.647Z,76.67
2019-02-04T08:13:39.650Z,76.69
2019-02-04T08:16:10.882Z,76.87
2019-02-04T08:18:42.036Z,77.00
2019-02-04T08:21:13.195Z,77.23
2019-02-04T08:23:44.313Z,76.52
2019-02-04T08:26:15.422Z,75.79
2019-02-04T08:28:46.571Z,74.48
2019-02-04T08:31:17.656Z,73.25
2019-02-04T08:33:48.750Z,72.76
2019-02-04T08:36:20.006Z,73.03
2019-02-04T08:38:51.153Z,72.53
2019-02-04T08:41:22.351Z,72.58
2019-02-04T08:43:53.381Z,72.59
2019-02-04T08:46:24.900Z,72.53
2019-02-04T08:48:56.026Z,72.62
2019-02-04T08:51:27.094Z,72.49
2019-02-04T08:53:58.146Z,71.93
2019-02-04T08:56:29.299Z,71.29
2019-02-04T08:59:00.282Z,70.64
2019-02-04T09:01:31.620Z,70.06
2019-02-04T09:04:02.784Z,70.15
2019-02-04T09:06:33.925Z,69.98
2019-02-04T09:09:08.551Z,69.10
2019-02-04T09:11:40.470Z,68.92
2019-02-04T09:14:11.678Z,68.95
2019-02-04T09:16:42.860Z,68.93
2019-02-04T09:19:14.087Z,67.72
2019-02-04T09:21:45.239Z,65.63
2019-02-04T09:24:16.217Z,64.05
2019-02-04T09:26:47.494Z,63.34
2019-02-04T09:29:18.656Z,62.82
2019-02-04T09:31:50.871Z,62.60
2019-02-04T09:34:21.936Z,62.83
2019-02-04T09:36:53.148Z,63.15
2019-02-04T09:39:24.579Z,63.09
2019-02-04T09:41:55.835Z,62.60
2019-02-04T09:44:27.034Z,62.27
2019-02-04T09:46:58.159Z,62.35
2019-02-04T09:49:29.251Z,62.86
2019-02-04T09:52:00.678Z,62.87
2019-02-04T09:54:31.750Z,62.98
2019-02-04T09:57:02.876Z,62.75
2019-02-04T09:59:33.939Z,62.52
2019-02-04T10:02:05.307Z,62.72
2019-02-04T10:04:36.765Z,62.89
2019-02-04T10:07:08.002Z,62.20
2019-02-04T10:09:39.210Z,61.43
2019-02-04T10:12:10.390Z,61.44
2019-02-04T10:14:41.719Z,61.14
2019-02-04T10:17:13.194Z,61.56
2019-02-04T10:19:44.417Z,61.47
2019-02-04T10:22:15.538Z,61.37
2019-02-04T10:24:46.627Z,62.13
2019-02-04T10:27:17.777Z,62.53
2019-02-04T10:29:49.370Z,62.24
2019-02-04T10:32:20.594Z,63.35
2019-02-04T10:34:51.717Z,63.26
2019-02-04T10:37:22.839Z,62.00
2019-02-04T10:39:53.935Z,62.22
2019-02-04T10:42:25.817Z,61.28
2019-02-04T10:44:57.088Z,61.40
2019-02-04T10:47:28.315Z,60.61
2019-02-04T10:49:59.379Z,60.67
2019-02-04T10:52:30.604Z,58.99
2019-02-04T10:55:02.138Z,57.66
2019-02-04T10:57:40.345Z,57.44
2019-02-04T11:00:08.377Z,57.14
2019-02-04T11:02:39.518Z,58.16
2019-02-04T11:05:13.207Z,57.31
2019-02-04T11:07:44.823Z,58.70
2019-02-04T11:10:17.244Z,59.55
2019-02-04T11:12:48.756Z,60.45
2019-02-04T11:15:20.234Z,59.75
2019-02-04T11:17:51.505Z,59.26
2019-02-04T11:20:25.796Z,57.62
2019-02-04T11:22:57.664Z,58.12
2019-02-04T11:25:28.853Z,58.19
2019-02-04T11:28:00.604Z,58.67
2019-02-04T11:30:37.363Z,58.69
2019-02-04T11:33:08.667Z,60.41
2019-02-04T11:35:39.933Z,58.91
2019-02-04T11:38:11.116Z,58.24
2019-02-04T11:40:42.409Z,56.43
2019-02-04T11:43:15.190Z,55.39
2019-02-04T11:45:46.440Z,54.52
2019-02-04T11:48:17.971Z,52.56
2019-02-04T11:50:49.282Z,53.50
2019-02-04T11:53:31.909Z,53.79
2019-02-04T11:55:53.243Z,49.66
2019-02-04T11:58:24.493Z,48.65
2019-02-04T12:00:55.737Z,47.85
2019-02-04T12:03:26.957Z,45.62
2019-02-04T12:05:58.101Z,45.91
2019-02-04T12:08:29.536Z,47.02
2019-02-04T12:11:08.929Z,47.05
2019-02-04T12:13:40.102Z,48.12
2019-02-04T12:16:11.388Z,47.36
2019-02-04T12:18:42.594Z,47.71
2019-02-04T12:21:21.167Z,51.55
2019-02-04T12:23:46.658Z,50.98
2019-02-04T12:26:17.807Z,47.45
2019-02-04T12:28:49.930Z,39.29
2019-02-04T12:31:21.098Z,32.07
2019-02-04T12:33:52.225Z,31.69
2019-02-04T12:36:23.304Z,34.59
2019-02-04T12:38:54.522Z,33.67
2019-02-04T12:41:25.676Z,37.28
2019-02-04T12:43:56.935Z,40.31
2019-02-04T12:46:27.997Z,43.62
2019-02-04T12:48:59.102Z,43.99
2019-02-04T12:51:33.680Z,42.55
2019-02-04T12:54:03.116Z,42.78
2019-02-04T12:56:34.268Z,43.76
2019-02-04T12:59:05.851Z,46.07
2019-02-04T13:01:37.084Z,37.93
2019-02-04T13:04:08.481Z,38.45
2019-02-04T13:06:39.550Z,39.84
2019-02-04T13:09:10.782Z,40.02
2019-02-04T13:11:41.942Z,38.02
2019-02-04T13:14:13.097Z,38.12
2019-02-04T13:16:44.482Z,33.87
2019-02-04T13:19:15.538Z,33.00
2019-02-04T13:21:46.699Z,31.37
2019-02-04T13:24:17.926Z,29.35
2019-02-04T13:26:49.042Z,31.85
2019-02-04T13:29:20.248Z,29.90
2019-02-04T13:31:51.455Z,24.83
2019-02-04T13:34:22.639Z,26.05
2019-02-04T13:36:53.716Z,24.90
2019-02-04T13:39:24.874Z,22.55
2019-02-04T13:41:56.238Z,21.12
2019-02-04T13:44:28.402Z,21.81
2019-02-04T13:46:59.573Z,19.71
2019-02-04T13:49:30.661Z,18.61
2019-02-04T13:52:01.916Z,20.23
2019-02-04T13:54:33.005Z,18.88
2019-02-04T13:57:04.094Z,19.05
2019-02-04T13:59:35.228Z,19.54
2019-02-04T14:02:06.790Z,20.75
2019-02-04T14:04:37.988Z,23.17
2019-02-04T14:07:09.058Z,21.68
2019-02-04T14:09:40.311Z,21.17
2019-02-04T14:12:11.467Z,21.64
2019-02-04T14:14:43.459Z,24.89
2019-02-04T14:17:14.613Z,25.64
2019-02-04T14:19:45.778Z,23.44
2019-02-04T14:22:16.962Z,23.38
2019-02-04T14:24:48.535Z,25.12
2019-02-04T14:27:19.616Z,23.35
2019-02-04T14:29:50.723Z,21.89
2019-02-04T14:32:21.913Z,21.96
2019-02-04T14:34:54.703Z,21.42
2019-02-04T14:37:25.874Z,22.36
2019-02-04T14:39:57.028Z,20.58
2019-02-04T14:42:28.247Z,20.38
2019-02-04T14:45:26.376Z,20.84
2019-02-04T14:48:06.932Z,20.80
2019-02-04T14:51:06.562Z,20.52
2019-02-04T14:54:16.850Z,20.35
2019-02-04T14:57:25.244Z,21.24
2019-02-04T15:00:34.044Z,22.42
2019-02-04T15:03:20.382Z,23.46
2019-02-04T15:06:09.721Z,24.68
2019-02-04T15:09:11.225Z,26.07
2019-02-04T15:12:15.197Z,31.20
2019-02-04T15:15:09.931Z,34.56
2019-02-04T15:18:10.139Z,34.61
2019-02-04T15:21:25.788Z,35.11
2019-02-04T15:24:33.953Z,36.72
2019-02-04T15:28:01.694Z,38.77
2019-02-04T15:31:07.538Z,41.23
2019-02-04T15:34:24.562Z,45.49
2019-02-04T15:37:12.088Z,48.01
2019-02-04T15:40:29.656Z,52.44
2019-02-04T15:43:25.329Z,55.76
2019-02-04T15:46:12.514Z,57.96
2019-02-04T15:49:14.517Z,59.45
2019-02-04T15:51:53.668Z,60.43
2019-02-04T15:54:24.809Z,61.68
2019-02-04T15:56:56.802Z,63.56
2019-02-04T15:59:27.885Z,63.71
2019-02-04T16:01:59.476Z,64.54
2019-02-04T16:04:32.737Z,65.50
2019-02-04T16:07:06.452Z,66.32
2019-02-04T16:09:37.700Z,66.20
2019-02-04T16:12:09.366Z,67.35
2019-02-04T16:14:40.532Z,68.20
2019-02-04T16:17:12.437Z,68.74
2019-02-04T16:19:43.516Z,68.66
2019-02-04T16:22:14.800Z,69.36
2019-02-04T16:24:46.235Z,70.24
2019-02-04T16:27:17.271Z,71.04
2019-02-04T16:29:48.351Z,71.30
2019-02-04T16:32:19.535Z,71.11
2019-02-04T16:34:50.600Z,71.98
2019-02-04T16:37:21.702Z,73.05
2019-02-04T16:39:53.239Z,72.70
2019-02-04T16:42:24.424Z,72.10
2019-02-04T16:44:56.164Z,72.46
2019-02-04T16:47:27.319Z,73.05
2019-02-04T16:49:58.527Z,73.42
2019-02-04T16:52:30.036Z,74.25
2019-02-04T16:55:01.135Z,73.71
2019-02-04T16:57:32.502Z,73.30
2019-02-04T17:00:04.244Z,73.98
2019-02-04T17:02:36.458Z,74.08
2019-02-04T17:05:10.151Z,74.82
2019-02-04T17:07:41.331Z,74.76
2019-02-04T17:10:16.400Z,75.73
2019-02-04T17:12:50.674Z,74.42
2019-02-04T17:15:22.009Z,73.53
2019-02-04T17:17:53.093Z,73.86
2019-02-04T17:20:26.729Z,74.36
2019-02-04T17:22:58.201Z,74.81
2019-02-04T17:25:29.383Z,75.12
2019-02-04T17:28:00.659Z,75.27
2019-02-04T17:30:32.037Z,75.41
2019-02-04T17:33:03.341Z,74.92
2019-02-04T17:35:34.539Z,75.48
2019-02-04T17:38:05.798Z,76.34
2019-02-04T17:40:37.021Z,76.02
2019-02-04T17:43:08.125Z,76.00
2019-02-04T17:45:39.411Z,76.09
2019-02-04T17:48:10.558Z,76.35
2019-02-04T17:50:41.840Z,77.15
2019-02-04T17:53:13.081Z,76.64
2019-02-04T17:55:44.447Z,76.24
2019-02-04T17:58:17.328Z,76.58
2019-02-04T18:00:50.455Z,76.90
2019-02-04T18:03:21.625Z,77.24
2019-02-04T18:05:52.740Z,77.36
2019-02-04T18:08:23.831Z,76.89
2019-02-04T18:10:54.912Z,77.11
2019-02-04T18:13:26.989Z,77.26
2019-02-04T18:15:58.099Z,77.67
2019-02-04T18:18:29.293Z,77.89
2019-02-04T18:21:00.400Z,77.91
2019-02-04T18:23:31.474Z,77.59
2019-02-04T18:26:02.588Z,77.78
2019-02-04T18:28:33.760Z,78.10
2019-02-04T18:31:05.059Z,78.78
2019-02-04T18:33:36.474Z,78.95
2019-02-04T18:36:07.620Z,79.06
2019-02-04T18:38:38.771Z,79.16
2019-02-04T18:41:09.990Z,78.69
2019-02-04T18:43:41.059Z,78.63
2019-02-04T18:46:12.346Z,78.87
2019-02-04T18:48:45.198Z,79.17
2019-02-04T18:51:16.394Z,79.22
2019-02-04T18:53:57.457Z,78.18
2019-02-04T18:56:20.413Z,78.04
2019-02-04T18:58:51.582Z,78.20
2019-02-04T19:01:22.685Z,77.99
2019-02-04T19:03:54.924Z,77.80
2019-02-04T19:06:26.361Z,77.69
2019-02-04T19:08:57.372Z,78.41
2019-02-04T19:11:28.555Z,77.91
2019-02-04T19:13:59.635Z,77.91
2019-02-04T19:16:30.811Z,77.08
2019-02-04T19:19:01.806Z,76.55
2019-02-04T19:21:33.012Z,76.59
2019-02-04T19:24:09.643Z,76.94
2019-02-04T19:26:37.236Z,77.17
2019-02-04T19:29:08.369Z,78.06
2019-02-04T19:31:39.563Z,77.62
2019-02-04T19:34:10.721Z,77.82
2019-02-04T19:36:41.820Z,77.74
2019-02-04T19:39:14.227Z,77.74
2019-02-04T19:41:45.423Z,78.14
2019-02-04T19:44:16.594Z,78.68
2019-02-04T19:46:48.047Z,78.67
2019-02-04T19:49:19.161Z,78.59
2019-02-04T19:51:50.301Z,78.75
2019-02-04T19:54:21.846Z,78.77
2019-02-04T19:56:54.744Z,78.59
2019-02-04T19:59:26.216Z,78.60
2019-02-04T20:01:57.380Z,78.75
2019-02-04T20:04:28.553Z,78.84
2019-02-04T20:06:59.676Z,78.40
2019-02-04T20:09:30.848Z,78.45
2019-02-04T20:12:02.319Z,79.11
2019-02-04T20:14:33.419Z,79.18
2019-02-04T20:17:04.905Z,78.83
2019-02-04T20:19:36.330Z,79.34
2019-02-04T20:22:07.628Z,78.80
2019-02-04T20:24:39.107Z,78.58
2019-02-04T20:27:10.395Z,78.58
2019-02-04T20:29:41.491Z,78.47
2019-02-04T20:32:12.685Z,78.26
2019-02-04T20:34:43.792Z,77.69
2019-02-04T20:37:15.953Z,78.17
2019-02-04T20:39:47.102Z,78.24
2019-02-04T20:42:18.267Z,78.26
2019-02-04T20:44:49.390Z,77.85
2019-02-04T20:47:20.587Z,77.58
2019-02-04T20:49:51.602Z,77.56
2019-02-04T20:52:22.635Z,76.95
2019-02-04T20:54:53.643Z,77.09
2019-02-04T20:57:24.805Z,77.23
2019-02-04T20:59:56.358Z,78.18
2019-02-04T21:02:27.575Z,78.48
2019-02-04T21:04:58.812Z,79.13
2019-02-04T21:07:30.214Z,79.03
2019-02-04T21:10:01.420Z,79.65
2019-02-04T21:12:33.865Z,79.51
2019-02-04T21:15:07.092Z,78.97
2019-02-04T21:17:38.272Z,78.21
2019-02-04T21:20:13.640Z,78.69
2019-02-04T21:22:44.819Z,78.02
2019-02-04T21:25:16.265Z,77.38
2019-02-04T21:27:47.536Z,77.74
2019-02-04T21:30:24.288Z,77.71
2019-02-04T21:32:55.840Z,77.10
2019-02-04T21:35:27.169Z,75.89
2019-02-04T21:37:58.409Z,76.23
2019-02-04T21:40:30.045Z,75.71
2019-02-04T21:43:04.844Z,76.03
2019-02-04T21:45:36.126Z,75.74
2019-02-04T21:48:07.801Z,75.87
2019-02-04T21:50:38.981Z,75.71
2019-02-04T21:53:10.728Z,76.51
2019-02-04T21:55:42.004Z,75.93
2019-02-04T21:58:13.250Z,74.70
2019-02-04T22:00:44.550Z,74.51
2019-02-04T22:03:15.658Z,74.66
2019-02-04T22:05:47.102Z,75.34
2019-02-04T22:08:18.127Z,75.93
2019-02-04T22:10:49.329Z,75.60
2019-02-04T22:13:20.367Z,75.15
2019-02-04T22:15:51.854Z,74.91
2019-02-04T22:18:23.052Z,74.29
2019-02-04T22:20:54.513Z,74.46
2019-02-04T22:23:26.206Z,74.42
2019-02-04T22:25:57.850Z,74.29
2019-02-04T22:28:28.914Z,75.03
2019-02-04T22:31:00.773Z,74.44
2019-02-04T22:33:31.842Z,73.72
2019-02-04T22:36:02.915Z,73.57
2019-02-04T22:38:34.028Z,73.71
2019-02-04T22:41:05.686Z,73.91
2019-02-04T22:43:36.781Z,74.43
2019-02-04T22:46:08.570Z,74.04
2019-02-04T22:48:39.590Z,73.89
2019-02-04T22:51:10.748Z,73.59
2019-02-04T22:53:41.794Z,73.36
2019-02-04T22:56:12.981Z,73.51
2019-02-04T22:58:44.457Z,73.38
2019-02-04T23:01:56.183Z,73.16
2019-02-04T23:04:27.698Z,73.08
2019-02-04T23:06:58.810Z,73.22
2019-02-04T23:09:31.071Z,73.23
2019-02-04T23:12:02.153Z,73.60
2019-02-04T23:14:33.263Z,73.48
2019-02-04T23:17:04.890Z,74.29
2019-02-04T23:19:36.623Z,73.63
2019-02-04T23:22:07.739Z,73.11
2019-02-04T23:24:38.928Z,72.79
2019-02-04T23:27:10.256Z,73.05
2019-02-04T23:29:41.730Z,73.20
2019-02-04T23:32:12.869Z,73.11
2019-02-04T23:34:43.937Z,73.16
2019-02-04T23:37:15.031Z,73.10
2019-02-04T23:39:46.161Z,73.21
2019-02-04T23:42:17.760Z,74.02
2019-02-04T23:44:50.125Z,73.59
2019-02-04T23:47:21.193Z,73.84
2019-02-04T23:49:52.319Z,72.95
2019-02-04T23:52:23.475Z,73.35
2019-02-04T23:54:54.923Z,74.23
2019-02-04T23:57:26.073Z,75.16
2019-02-04T23:59:57.218Z,75.10
